Time;durP1;ratioP1;P1;durP2;ratioP2;P2;SDS_P1;SDS_P2;PMS_P1;PMS_P2;Temp;Humidity;BMP_temperature;BMP_pressure;BME280_temperature;BME280_humidity;BME280_pressure;Samples;Min_cycle;Max_cycle;Signal;HPM_P1;HPM_P2
2021/06/15 00:02:01;;;;;;;0.00;0.00;;;15.70;99.90;;;;;;5083925;28;20241;-67
2021/06/15 00:04:28;;;;;;;0.00;0.00;;;15.70;99.90;;;;;;5084670;28;20193;-67
2021/06/15 00:06:55;;;;;;;0.00;0.00;;;15.60;99.90;;;;;;5080301;28;20605;-65
2021/06/15 00:09:22;;;;;;;0.00;0.00;;;15.60;99.90;;;;;;5080435;28;20284;-65
2021/06/15 00:11:49;;;;;;;0.00;0.00;;;15.60;99.90;;;;;;5083382;28;20201;-64
2021/06/15 00:14:17;;;;;;;0.00;0.00;;;15.60;99.90;;;;;;5084943;28;20228;-69
2021/06/15 00:16:44;;;;;;;0.00;0.00;;;15.50;99.90;;;;;;5084664;28;20213;-70
2021/06/15 00:19:11;;;;;;;0.30;0.30;;;15.50;99.90;;;;;;5083775;28;20198;-64
2021/06/15 00:21:38;;;;;;;0.20;0.20;;;15.60;99.90;;;;;;5080841;28;22220;-66
2021/06/15 00:24:06;;;;;;;0.00;0.00;;;15.50;99.90;;;;;;5079688;28;20260;-70
2021/06/15 00:26:33;;;;;;;0.00;0.00;;;15.60;99.90;;;;;;5078971;28;20202;-67
2021/06/15 00:29:00;;;;;;;0.00;0.00;;;15.60;99.90;;;;;;5080462;28;20295;-65
2021/06/15 00:31:28;;;;;;;0.00;0.00;;;15.60;99.90;;;;;;5077989;28;20311;-70
2021/06/15 00:33:55;;;;;;;0.00;0.00;;;15.70;99.90;;;;;;5080314;28;20222;-65
2021/06/15 00:36:22;;;;;;;0.00;0.00;;;15.70;99.90;;;;;;5080827;28;20283;-68
2021/06/15 00:38:49;;;;;;;0.00;0.00;;;15.70;99.90;;;;;;5078495;28;20259;-67
2021/06/15 00:41:16;;;;;;;0.00;0.00;;;15.70;99.90;;;;;;5078536;28;20251;-64
2021/06/15 00:43:43;;;;;;;0.00;0.00;;;15.70;99.90;;;;;;5077391;28;20205;-65
2021/06/15 00:46:10;;;;;;;0.00;0.00;;;15.70;99.90;;;;;;5081425;28;20259;-68
2021/06/15 00:48:39;;;;;;;0.00;0.00;;;15.70;99.90;;;;;;5081465;28;20221;-67
2021/06/15 00:51:07;;;;;;;0.00;0.00;;;15.70;99.90;;;;;;5081082;28;20194;-68
2021/06/15 00:53:36;;;;;;;0.00;0.00;;;15.70;99.90;;;;;;5080928;28;20205;-68
2021/06/15 00:56:04;;;;;;;0.00;0.00;;;15.70;99.90;;;;;;5079585;28;20300;-65
2021/06/15 00:58:31;;;;;;;0.00;0.00;;;15.70;99.90;;;;;;5080055;28;20213;-64
2021/06/15 01:00:59;;;;;;;0.00;0.00;;;15.80;99.90;;;;;;5083087;28;20299;-69
2021/06/15 01:03:28;;;;;;;0.00;0.00;;;15.80;99.90;;;;;;5079468;28;20311;-68
2021/06/15 01:05:57;;;;;;;0.00;0.00;;;15.80;99.90;;;;;;5081062;28;20197;-68
2021/06/15 01:08:37;;;;;;;0.00;0.00;;;15.90;99.90;;;;;;5079737;28;20198;-72
2021/06/15 01:11:14;;;;;;;0.00;0.00;;;16.00;99.90;;;;;;5082027;28;20246;-70
2021/06/15 01:13:58;;;;;;;0.00;0.00;;;16.10;99.90;;;;;;5079553;28;20267;-69
2021/06/15 01:16:32;;;;;;;0.00;0.00;;;16.20;99.90;;;;;;5080010;28;20413;-67
2021/06/15 01:19:06;;;;;;;0.00;0.00;;;16.20;99.90;;;;;;5081734;28;20193;-63
2021/06/15 01:21:48;;;;;;;0.00;0.00;;;16.20;99.90;;;;;;5082666;28;22150;-63
2021/06/15 01:24:32;;;;;;;0.00;0.00;;;16.30;99.90;;;;;;5080806;28;20266;-65
2021/06/15 01:27:25;;;;;;;0.00;0.00;;;16.30;99.90;;;;;;5081533;28;20190;-67
2021/06/15 01:29:57;;;;;;;0.00;0.00;;;16.40;99.90;;;;;;5074204;28;20665;-69
2021/06/15 01:32:29;;;;;;;0.00;0.00;;;16.40;99.90;;;;;;5081910;28;20287;-68
2021/06/15 01:34:58;;;;;;;0.10;0.10;;;16.40;99.90;;;;;;5089166;28;20255;-66
2021/06/15 01:37:30;;;;;;;0.00;0.00;;;16.50;99.90;;;;;;5086062;28;20418;-68
2021/06/15 01:39:59;;;;;;;0.00;0.00;;;16.50;99.90;;;;;;5085995;28;20230;-63
2021/06/15 01:42:30;;;;;;;0.00;0.00;;;16.50;99.90;;;;;;5085774;28;20710;-70
2021/06/15 01:45:04;;;;;;;0.00;0.00;;;16.60;99.90;;;;;;5085386;28;20606;-69
2021/06/15 01:47:31;;;;;;;0.00;0.00;;;16.60;99.90;;;;;;5085733;28;20187;-67
2021/06/15 01:50:00;;;;;;;0.00;0.00;;;16.60;99.90;;;;;;5084093;28;20195;-67
2021/06/15 01:52:32;;;;;;;0.00;0.00;;;16.70;99.90;;;;;;5083954;28;20574;-70
2021/06/15 01:55:01;;;;;;;0.00;0.00;;;16.70;99.90;;;;;;5088707;28;20237;-67
2021/06/15 01:57:28;;;;;;;0.00;0.00;;;16.70;99.90;;;;;;5088458;28;20214;-65
2021/06/15 02:00:01;;;;;;;0.00;0.00;;;16.80;99.90;;;;;;5086571;28;20198;-67
2021/06/15 02:02:30;;;;;;;0.50;0.50;;;16.80;99.90;;;;;;5085763;28;20211;-65
2021/06/15 02:04:57;;;;;;;0.10;0.10;;;16.80;99.90;;;;;;5088872;28;20197;-72
2021/06/15 02:07:29;;;;;;;0.00;0.00;;;16.90;99.90;;;;;;5090752;28;20732;-66
2021/06/15 02:10:01;;;;;;;0.00;0.00;;;16.90;99.90;;;;;;5089389;28;20194;-63
2021/06/15 02:12:31;;;;;;;0.00;0.00;;;17.00;99.90;;;;;;5089540;28;20258;-68
2021/06/15 02:15:00;;;;;;;0.00;0.00;;;17.00;99.90;;;;;;5092097;28;20200;-63
2021/06/15 02:17:30;;;;;;;0.00;0.00;;;17.00;99.90;;;;;;5088413;28;20194;-64
2021/06/15 02:19:58;;;;;;;0.00;0.00;;;17.00;99.90;;;;;;5089492;28;20591;-66
2021/06/15 02:22:26;;;;;;;0.00;0.00;;;17.00;99.90;;;;;;5086414;28;20225;-65
2021/06/15 02:24:56;;;;;;;0.00;0.00;;;17.00;99.90;;;;;;5082453;28;20195;-66
2021/06/15 02:27:25;;;;;;;0.07;0.07;;;17.10;99.90;;;;;;5086967;28;20198;-63
2021/06/15 02:29:54;;;;;;;0.00;0.00;;;17.10;99.90;;;;;;5089971;28;20579;-69
2021/06/15 02:32:28;;;;;;;0.00;0.00;;;17.10;99.90;;;;;;5088126;28;20243;-67
2021/06/15 02:34:58;;;;;;;0.10;0.10;;;17.10;99.90;;;;;;5092617;28;20233;-68
2021/06/15 02:37:30;;;;;;;0.00;0.00;;;17.10;99.90;;;;;;5089867;28;20201;-64
2021/06/15 02:39:58;;;;;;;0.17;0.17;;;17.20;99.90;;;;;;5087384;28;20198;-66
2021/06/15 02:42:26;;;;;;;0.30;0.30;;;17.20;99.90;;;;;;5089175;28;20691;-64
2021/06/15 02:44:57;;;;;;;0.00;0.00;;;17.20;99.90;;;;;;5089655;27;20213;-65
2021/06/15 02:47:27;;;;;;;0.00;0.00;;;17.20;99.90;;;;;;5089540;28;20289;-65
2021/06/15 02:49:58;;;;;;;0.00;0.00;;;17.20;99.90;;;;;;5088533;28;20251;-66
2021/06/15 02:52:37;;;;;;;0.00;0.00;;;17.30;99.90;;;;;;5089551;28;20207;-66
2021/06/15 02:55:07;;;;;;;0.00;0.00;;;17.30;99.90;;;;;;5087676;28;20743;-65
2021/06/15 02:57:34;;;;;;;0.87;0.50;;;17.30;99.90;;;;;;5088229;28;20198;-67
2021/06/15 03:00:01;;;;;;;0.17;0.17;;;17.30;99.90;;;;;;5089540;28;20689;-67
2021/06/15 03:02:29;;;;;;;0.23;0.23;;;17.30;99.90;;;;;;5089088;28;21256;-68
2021/06/15 03:04:56;;;;;;;0.20;0.20;;;17.30;99.90;;;;;;5089261;28;20250;-65
2021/06/15 03:07:23;;;;;;;0.60;0.60;;;17.30;99.90;;;;;;5091218;28;20255;-64
2021/06/15 03:09:50;;;;;;;0.00;0.00;;;17.30;99.90;;;;;;5095102;28;20251;-66
2021/06/15 03:12:20;;;;;;;0.30;0.30;;;17.30;99.90;;;;;;5090481;28;20556;-66
2021/06/15 03:14:52;;;;;;;0.00;0.00;;;17.30;99.90;;;;;;5089029;28;20303;-64
2021/06/15 03:17:22;;;;;;;0.00;0.00;;;17.30;99.90;;;;;;5091380;28;20256;-66
2021/06/15 03:19:59;;;;;;;0.00;0.00;;;17.20;99.90;;;;;;5091359;28;20198;-66
2021/06/15 03:22:30;;;;;;;0.13;0.13;;;17.20;99.90;;;;;;5086855;28;20213;-64
2021/06/15 03:25:03;;;;;;;0.00;0.00;;;17.20;99.90;;;;;;5087643;28;20216;-64
2021/06/15 03:27:39;;;;;;;0.00;0.00;;;17.10;99.90;;;;;;5090055;28;20254;-63
2021/06/15 03:30:09;;;;;;;0.00;0.00;;;17.10;99.90;;;;;;5087520;28;20208;-67
2021/06/15 03:32:44;;;;;;;0.00;0.00;;;17.10;99.90;;;;;;5090461;28;20197;-66
2021/06/15 03:35:14;;;;;;;0.00;0.00;;;17.00;99.90;;;;;;5090661;28;20197;-66
2021/06/15 03:37:49;;;;;;;0.00;0.00;;;17.00;99.90;;;;;;5089430;28;20194;-65
2021/06/15 03:40:17;;;;;;;0.00;0.00;;;17.00;99.90;;;;;;5088086;28;20257;-66
2021/06/15 03:42:44;;;;;;;0.00;0.00;;;17.00;99.90;;;;;;5086604;28;20272;-66
2021/06/15 03:45:12;;;;;;;0.00;0.00;;;17.10;99.90;;;;;;5090113;28;20596;-71
2021/06/15 03:47:41;;;;;;;0.00;0.00;;;17.10;99.90;;;;;;5089076;28;20612;-66
2021/06/15 03:50:11;;;;;;;0.00;0.00;;;17.10;99.90;;;;;;5088021;28;20201;-69
2021/06/15 03:52:40;;;;;;;0.00;0.00;;;17.10;99.90;;;;;;5088040;28;20218;-68
2021/06/15 03:55:10;;;;;;;0.00;0.00;;;17.10;99.90;;;;;;5086745;28;20229;-69
2021/06/15 03:57:41;;;;;;;0.00;0.00;;;17.10;99.90;;;;;;5088576;28;20195;-71
2021/06/15 04:00:09;;;;;;;0.00;0.00;;;17.10;99.90;;;;;;5089761;28;20204;-64
2021/06/15 04:02:39;;;;;;;0.00;0.00;;;17.10;99.90;;;;;;5089199;28;20229;-65
2021/06/15 04:05:09;;;;;;;0.00;0.00;;;17.20;99.90;;;;;;5088060;28;20941;-67
2021/06/15 04:07:38;;;;;;;0.00;0.00;;;17.20;99.90;;;;;;5089911;28;20261;-65
2021/06/15 04:10:09;;;;;;;0.00;0.00;;;17.20;99.90;;;;;;5088539;28;20193;-66
2021/06/15 04:12:36;;;;;;;0.00;0.00;;;17.30;99.90;;;;;;5088733;28;20206;-65
2021/06/15 04:15:05;;;;;;;0.00;0.00;;;17.30;99.90;;;;;;5086561;28;22482;-65
2021/06/15 04:17:39;;;;;;;0.00;0.00;;;17.30;99.90;;;;;;5088406;28;20275;-65
2021/06/15 04:20:07;;;;;;;0.00;0.00;;;17.30;99.90;;;;;;5086248;28;20716;-65
2021/06/15 04:22:37;;;;;;;0.00;0.00;;;17.30;99.90;;;;;;5087225;28;20269;-65
2021/06/15 04:25:10;;;;;;;0.00;0.00;;;17.40;99.90;;;;;;5088176;28;20421;-65
2021/06/15 04:27:38;;;;;;;0.00;0.00;;;17.40;99.90;;;;;;5088438;28;20198;-65
2021/06/15 04:30:06;;;;;;;0.00;0.00;;;17.50;99.90;;;;;;5087597;28;20626;-65
2021/06/15 04:32:41;;;;;;;0.00;0.00;;;17.50;99.90;;;;;;5087880;28;20194;-66
2021/06/15 04:35:10;;;;;;;0.00;0.00;;;17.60;99.90;;;;;;5086515;28;20205;-65
2021/06/15 04:37:38;;;;;;;0.00;0.00;;;17.60;99.90;;;;;;5087005;28;20202;-65
2021/06/15 04:40:15;;;;;;;0.00;0.00;;;17.70;99.90;;;;;;5080429;28;20202;-65
2021/06/15 04:42:56;;;;;;;0.00;0.00;;;17.70;99.90;;;;;;5079147;28;20243;-66
2021/06/15 04:45:29;;;;;;;0.00;0.00;;;17.80;99.90;;;;;;5081782;28;20190;-65
2021/06/15 04:48:03;;;;;;;0.00;0.00;;;17.80;99.90;;;;;;5084670;28;20965;-67
2021/06/15 04:50:32;;;;;;;0.00;0.00;;;17.90;99.90;;;;;;5083367;28;20247;-65
2021/06/15 04:53:01;;;;;;;0.00;0.00;;;17.90;99.90;;;;;;5080840;28;20743;-66
2021/06/15 04:55:34;;;;;;;0.20;0.20;;;17.90;99.90;;;;;;5081005;28;20321;-65
2021/06/15 04:58:03;;;;;;;0.00;0.00;;;17.90;99.90;;;;;;5078780;28;20200;-66
2021/06/15 05:00:30;;;;;;;0.00;0.00;;;18.00;99.90;;;;;;5088380;28;20202;-66
2021/06/15 05:02:59;;;;;;;0.00;0.00;;;18.10;99.90;;;;;;5087744;28;20221;-66
2021/06/15 05:05:27;;;;;;;0.10;0.10;;;18.20;99.90;;;;;;5086934;28;20202;-65
2021/06/15 05:07:57;;;;;;;0.00;0.00;;;18.20;99.90;;;;;;5090035;28;20197;-65
2021/06/15 05:10:25;;;;;;;0.00;0.00;;;18.20;99.90;;;;;;5088575;27;20258;-66
2021/06/15 05:12:54;;;;;;;0.40;0.40;;;18.20;99.90;;;;;;5088694;28;20259;-66
2021/06/15 05:15:23;;;;;;;0.00;0.00;;;18.20;99.90;;;;;;5090921;28;20259;-65
2021/06/15 05:17:53;;;;;;;0.07;0.07;;;18.20;99.90;;;;;;5089387;28;20654;-65
2021/06/15 05:20:22;;;;;;;0.00;0.00;;;18.20;99.90;;;;;;5089281;28;20230;-65
2021/06/15 05:22:57;;;;;;;0.00;0.00;;;18.20;99.90;;;;;;5091546;28;20198;-65
2021/06/15 05:25:24;;;;;;;0.20;0.20;;;18.30;99.90;;;;;;5090402;28;20193;-65
2021/06/15 05:27:54;;;;;;;0.90;0.90;;;18.40;99.90;;;;;;5091082;28;20549;-67
2021/06/15 05:30:22;;;;;;;0.00;0.00;;;18.40;99.90;;;;;;5092798;28;20248;-68
2021/06/15 05:32:49;;;;;;;0.20;0.20;;;18.40;99.90;;;;;;5094174;28;20198;-66
2021/06/15 05:35:16;;;;;;;0.00;0.00;;;18.50;99.90;;;;;;5090552;28;20191;-66
2021/06/15 05:37:44;;;;;;;0.00;0.00;;;18.60;99.90;;;;;;5089628;28;20243;-66
2021/06/15 05:40:13;;;;;;;0.23;0.23;;;18.70;99.90;;;;;;5089132;28;20247;-66
2021/06/15 05:42:40;;;;;;;0.00;0.00;;;18.90;99.90;;;;;;5088861;28;20304;-67
2021/06/15 05:45:09;;;;;;;1.33;0.57;;;19.10;99.90;;;;;;5089533;28;20318;-66
2021/06/15 05:47:37;;;;;;;1.10;1.10;;;19.20;99.90;;;;;;5089510;28;20205;-67
2021/06/15 05:50:05;;;;;;;0.23;0.23;;;19.30;99.90;;;;;;5089479;28;20659;-66
2021/06/15 05:52:32;;;;;;;0.10;0.10;;;19.30;99.90;;;;;;5091246;28;20254;-68
2021/06/15 05:55:00;;;;;;;0.63;0.63;;;19.40;99.90;;;;;;5088287;28;20230;-67
2021/06/15 05:57:29;;;;;;;0.13;0.13;;;19.40;99.90;;;;;;5088277;28;20563;-70
2021/06/15 05:59:57;;;;;;;0.47;0.47;;;19.40;99.90;;;;;;5089854;28;20198;-65
2021/06/15 06:02:25;;;;;;;0.00;0.00;;;19.30;99.90;;;;;;5089882;28;20206;-66
2021/06/15 06:05:03;;;;;;;0.00;0.00;;;19.20;99.90;;;;;;5090883;28;22091;-65
2021/06/15 06:10:14;;;;;;;0.00;0.00;;;19.10;99.90;;;;;;5093468;28;20205;-67
2021/06/15 06:12:41;;;;;;;0.00;0.00;;;19.10;99.90;;;;;;5087402;27;20197;-67
2021/06/15 06:15:11;;;;;;;1.43;0.53;;;19.00;99.90;;;;;;5089520;28;20210;-66
2021/06/15 06:17:42;;;;;;;0.00;0.00;;;18.90;99.90;;;;;;5091277;28;20194;-67
2021/06/15 06:20:11;;;;;;;0.00;0.00;;;18.90;99.90;;;;;;5088951;28;20194;-65
2021/06/15 06:22:39;;;;;;;0.00;0.00;;;18.90;99.90;;;;;;5089266;28;20664;-66
2021/06/15 06:25:08;;;;;;;0.10;0.10;;;18.90;99.90;;;;;;5090819;28;20363;-67
2021/06/15 06:27:35;;;;;;;0.73;0.73;;;18.90;99.90;;;;;;5090947;28;20233;-66
2021/06/15 06:30:03;;;;;;;0.10;0.10;;;18.90;99.90;;;;;;5090689;28;20216;-67
2021/06/15 06:32:30;;;;;;;0.00;0.00;;;18.90;99.90;;;;;;5087582;28;20206;-66
2021/06/15 06:34:58;;;;;;;1.10;1.10;;;18.90;99.90;;;;;;5087327;28;20212;-68
2021/06/15 06:37:25;;;;;;;0.00;0.00;;;19.00;99.90;;;;;;5086362;28;20677;-69
2021/06/15 06:39:52;;;;;;;0.00;0.00;;;19.00;99.90;;;;;;5081981;28;20195;-70
2021/06/15 06:42:19;;;;;;;0.50;0.13;;;19.10;99.90;;;;;;5082178;28;20263;-73
2021/06/15 06:44:46;;;;;;;0.50;0.50;;;19.20;99.90;;;;;;5089565;28;20222;-69
2021/06/15 06:47:13;;;;;;;1.30;1.30;;;19.20;99.90;;;;;;5088303;28;20708;-68
2021/06/15 06:49:40;;;;;;;0.00;0.00;;;19.30;99.90;;;;;;5089598;28;20251;-67
2021/06/15 06:52:09;;;;;;;0.20;0.20;;;19.40;99.90;;;;;;5088864;28;20672;-69
2021/06/15 06:54:35;;;;;;;0.00;0.00;;;19.40;99.90;;;;;;5086187;28;20764;-67
2021/06/15 06:57:03;;;;;;;0.00;0.00;;;19.60;99.90;;;;;;5091333;28;20682;-66
2021/06/15 06:59:30;;;;;;;0.07;0.07;;;19.70;99.90;;;;;;5087853;28;20353;-77
2021/06/15 07:01:57;;;;;;;0.57;0.57;;;19.80;99.90;;;;;;5090887;28;20233;-69
2021/06/15 07:04:24;;;;;;;0.40;0.33;;;19.80;99.90;;;;;;5093109;28;20490;-70
2021/06/15 07:06:51;;;;;;;1.10;0.83;;;19.70;99.90;;;;;;5090625;28;20206;-67
2021/06/15 07:09:19;;;;;;;0.23;0.23;;;19.60;99.90;;;;;;5089798;28;20718;-67
2021/06/15 07:11:46;;;;;;;2.13;2.03;;;19.70;99.90;;;;;;5089549;28;20193;-67
2021/06/15 07:14:13;;;;;;;0.40;0.40;;;19.80;99.90;;;;;;5086343;28;20202;-70
2021/06/15 07:16:40;;;;;;;0.00;0.00;;;20.10;99.90;;;;;;5092252;28;20203;-71
2021/06/15 07:19:07;;;;;;;0.00;0.00;;;20.30;99.90;;;;;;5087921;28;21745;-69
2021/06/15 07:21:34;;;;;;;0.00;0.00;;;20.60;99.90;;;;;;5086080;28;20295;-74
2021/06/15 07:24:01;;;;;;;0.00;0.00;;;20.60;99.90;;;;;;5089607;28;20272;-69
2021/06/15 07:26:29;;;;;;;0.00;0.00;;;20.50;99.90;;;;;;5092262;28;20201;-66
2021/06/15 07:28:58;;;;;;;0.10;0.10;;;20.50;99.90;;;;;;5091134;28;20239;-69
2021/06/15 07:31:25;;;;;;;0.10;0.10;;;20.60;99.90;;;;;;5089385;28;20213;-67
2021/06/15 07:33:52;;;;;;;0.00;0.00;;;20.60;99.90;;;;;;5091991;28;20202;-68
2021/06/15 07:36:19;;;;;;;0.17;0.17;;;20.50;99.90;;;;;;5087808;28;20270;-77
2021/06/15 07:38:46;;;;;;;1.40;0.90;;;20.40;99.90;;;;;;5086840;28;20774;-67
2021/06/15 07:41:13;;;;;;;0.00;0.00;;;20.50;99.90;;;;;;5087008;28;20194;-69
2021/06/15 07:43:41;;;;;;;0.17;0.17;;;20.60;99.90;;;;;;5088684;27;20237;-67
2021/06/15 07:46:08;;;;;;;0.40;0.40;;;20.70;99.90;;;;;;5087043;28;20610;-67
2021/06/15 07:48:35;;;;;;;0.00;0.00;;;20.70;99.90;;;;;;5087858;28;20202;-67
2021/06/15 07:51:02;;;;;;;0.00;0.00;;;20.60;99.90;;;;;;5084597;28;20210;-67
2021/06/15 07:53:29;;;;;;;0.00;0.00;;;20.50;99.90;;;;;;5081285;28;20202;-69
2021/06/15 07:55:56;;;;;;;0.00;0.00;;;20.40;99.90;;;;;;5081177;28;20230;-68
2021/06/15 07:58:23;;;;;;;0.30;0.23;;;20.30;99.90;;;;;;5084518;28;20202;-68
2021/06/15 08:00:52;;;;;;;0.00;0.00;;;20.30;99.90;;;;;;5087331;28;20240;-67
2021/06/15 08:03:19;;;;;;;0.10;0.10;;;20.30;99.90;;;;;;5085212;28;20670;-69
2021/06/15 08:05:46;;;;;;;1.30;0.30;;;20.30;99.90;;;;;;5086918;28;20250;-71
2021/06/15 08:08:13;;;;;;;0.00;0.00;;;20.50;99.90;;;;;;5081842;28;20251;-68
2021/06/15 08:10:40;;;;;;;0.00;0.00;;;21.00;99.90;;;;;;5081471;28;20603;-67
2021/06/15 08:13:07;;;;;;;0.00;0.00;;;21.70;99.90;;;;;;5079938;28;20279;-67
2021/06/15 08:15:34;;;;;;;0.00;0.00;;;22.60;99.90;;;;;;5080990;28;21374;-71
2021/06/15 08:18:02;;;;;;;0.00;0.00;;;23.20;99.90;;;;;;5081535;28;20202;-68
2021/06/15 08:20:29;;;;;;;0.55;0.45;;;23.80;99.90;;;;;;5084087;28;20567;-68
2021/06/15 08:22:56;;;;;;;0.00;0.00;;;23.90;99.90;;;;;;5082170;28;20202;-66
2021/06/15 08:25:23;;;;;;;0.00;0.00;;;24.30;99.90;;;;;;5083337;28;21022;-67
2021/06/15 08:27:50;;;;;;;0.10;0.10;;;24.50;99.90;;;;;;5081304;28;20729;-67
2021/06/15 08:30:18;;;;;;;1.13;0.17;;;24.10;99.90;;;;;;5083552;28;20206;-70
2021/06/15 08:32:45;;;;;;;1.85;0.38;;;23.60;99.90;;;;;;5085343;28;20252;-69
2021/06/15 08:35:14;;;;;;;0.20;0.20;;;22.90;99.90;;;;;;5089458;28;20203;-67
2021/06/15 08:37:41;;;;;;;0.00;0.00;;;22.50;99.90;;;;;;5088836;28;20667;-69
2021/06/15 08:40:09;;;;;;;0.22;0.22;;;22.40;99.90;;;;;;5090126;28;20264;-70
2021/06/15 08:42:37;;;;;;;0.35;0.35;;;22.40;99.90;;;;;;5085742;28;20553;-68
2021/06/15 08:45:06;;;;;;;0.00;0.00;;;22.40;99.90;;;;;;5087069;28;20238;-69
2021/06/15 08:47:37;;;;;;;0.00;0.00;;;22.40;99.90;;;;;;5090237;28;20193;-69
2021/06/15 08:50:04;;;;;;;0.00;0.00;;;22.20;99.90;;;;;;5087331;28;20287;-68
2021/06/15 08:52:33;;;;;;;0.00;0.00;;;22.20;99.90;;;;;;5088640;28;20208;-69
2021/06/15 08:55:00;;;;;;;0.00;0.00;;;22.30;99.90;;;;;;5086337;28;20790;-73
2021/06/15 08:57:27;;;;;;;0.17;0.10;;;22.60;99.90;;;;;;5086174;28;20262;-68
2021/06/15 09:00:00;;;;;;;0.00;0.00;;;22.80;99.90;;;;;;5087901;28;20247;-72
2021/06/15 09:02:28;;;;;;;0.17;0.08;;;22.60;99.90;;;;;;5087757;28;20194;-70
2021/06/15 09:04:55;;;;;;;0.00;0.00;;;22.40;99.90;;;;;;5089687;28;20226;-71
2021/06/15 09:07:22;;;;;;;0.00;0.00;;;22.30;99.90;;;;;;5088887;28;20199;-70
2021/06/15 09:09:51;;;;;;;0.00;0.00;;;22.30;99.90;;;;;;5082920;28;20655;-71
2021/06/15 09:12:21;;;;;;;0.00;0.00;;;22.50;99.90;;;;;;5086398;28;20656;-68
2021/06/15 09:14:49;;;;;;;0.00;0.00;;;22.80;99.90;;;;;;5083707;28;20270;-70
2021/06/15 09:17:33;;;;;;;0.20;0.20;;;23.30;99.90;;;;;;5085708;28;20206;-70
2021/06/15 09:20:10;;;;;;;0.00;0.00;;;23.60;99.90;;;;;;5088519;28;20194;-72
2021/06/15 09:22:38;;;;;;;0.15;0.15;;;23.70;99.90;;;;;;5085738;28;20222;-70
2021/06/15 09:25:11;;;;;;;0.00;0.00;;;24.10;99.90;;;;;;5084534;28;20229;-67
2021/06/15 09:27:39;;;;;;;0.30;0.30;;;24.40;99.90;;;;;;5085700;28;20198;-70
2021/06/15 09:30:09;;;;;;;0.10;0.10;;;24.50;99.90;;;;;;5085023;28;20205;-70
2021/06/15 09:32:39;;;;;;;0.00;0.00;;;24.20;99.90;;;;;;5087982;28;20206;-69
2021/06/15 09:35:08;;;;;;;0.00;0.00;;;24.60;99.90;;;;;;5083259;28;20199;-67
2021/06/15 09:37:39;;;;;;;0.00;0.00;;;25.20;99.90;;;;;;5097626;28;20208;-72
2021/06/15 09:40:14;;;;;;;0.00;0.00;;;25.90;99.90;;;;;;5091986;28;20247;-72
2021/06/15 09:42:55;;;;;;;0.00;0.00;;;26.80;99.90;;;;;;5090893;28;20190;-67
2021/06/15 09:45:24;;;;;;;0.00;0.00;;;27.20;99.90;;;;;;5091740;28;20218;-67
2021/06/15 09:47:51;;;;;;;0.00;0.00;;;26.90;99.90;;;;;;5089328;28;20189;-72
2021/06/15 09:50:22;;;;;;;0.20;0.20;;;26.80;99.90;;;;;;5090789;28;20205;-75
2021/06/15 09:52:49;;;;;;;0.00;0.00;;;26.60;99.90;;;;;;5090050;28;20190;-71
2021/06/15 09:55:18;;;;;;;0.63;0.63;;;25.60;99.90;;;;;;5084742;28;20229;-66
2021/06/15 09:57:51;;;;;;;0.00;0.00;;;25.00;99.90;;;;;;5089401;28;20201;-67
2021/06/15 10:00:19;;;;;;;0.08;0.08;;;24.90;99.90;;;;;;5087133;28;20190;-71
2021/06/15 10:02:48;;;;;;;0.20;0.20;;;24.90;99.90;;;;;;5090057;28;20222;-67
2021/06/15 10:05:26;;;;;;;0.00;0.00;;;25.00;99.90;;;;;;5092448;28;20225;-67
2021/06/15 10:07:54;;;;;;;0.00;0.00;;;24.90;99.90;;;;;;5089726;28;20668;-67
2021/06/15 10:10:25;;;;;;;0.00;0.00;;;24.90;99.90;;;;;;5090106;28;20423;-67
2021/06/15 10:12:53;;;;;;;0.17;0.17;;;25.00;99.90;;;;;;5090119;28;20254;-69
2021/06/15 10:15:21;;;;;;;0.17;0.17;;;25.10;99.90;;;;;;5093228;28;20198;-70
2021/06/15 10:17:48;;;;;;;0.00;0.00;;;25.00;99.90;;;;;;5090687;28;20202;-69
2021/06/15 10:20:17;;;;;;;0.00;0.00;;;25.00;99.90;;;;;;5088702;28;20210;-67
2021/06/15 10:22:46;;;;;;;0.00;0.00;;;25.20;99.90;;;;;;5091441;28;20190;-68
2021/06/15 10:25:15;;;;;;;0.10;0.00;;;25.30;99.90;;;;;;5089103;28;20257;-69
2021/06/15 10:27:43;;;;;;;0.38;0.38;;;25.60;99.90;;;;;;5090675;28;20214;-67
2021/06/15 10:30:12;;;;;;;0.00;0.00;;;26.40;99.90;;;;;;5089668;28;20294;-66
2021/06/15 10:32:52;;;;;;;0.00;0.00;;;27.00;99.90;;;;;;5091077;28;20205;-66
2021/06/15 10:35:38;;;;;;;0.10;0.10;;;27.50;99.90;;;;;;5089669;28;20748;-72
2021/06/15 10:38:06;;;;;;;0.00;0.00;;;27.50;99.90;;;;;;5087925;28;20210;-66
2021/06/15 10:40:55;;;;;;;0.30;0.30;;;27.00;99.90;;;;;;5089707;28;20278;-67
2021/06/15 10:43:29;;;;;;;0.35;0.30;;;26.40;99.90;;;;;;5088845;28;20222;-69
2021/06/15 10:46:23;;;;;;;0.00;0.00;;;26.10;99.90;;;;;;5087514;28;20721;-67
2021/06/15 10:49:01;;;;;;;0.00;0.00;;;25.90;99.90;;;;;;5090959;28;20913;-68
2021/06/15 10:51:36;;;;;;;0.40;0.40;;;25.80;99.90;;;;;;5084889;28;20238;-71
2021/06/15 10:54:24;;;;;;;0.85;0.85;;;26.20;99.90;;;;;;5087576;28;20974;-74
2021/06/15 10:57:26;;;;;;;0.05;0.05;;;26.40;99.90;;;;;;5081670;28;20659;-75
2021/06/15 11:00:04;;;;;;;0.00;0.00;;;26.50;99.90;;;;;;5083021;28;20458;-67
2021/06/15 11:02:32;;;;;;;0.00;0.00;;;26.60;99.90;;;;;;5089625;28;20266;-67
2021/06/15 11:05:00;;;;;;;0.80;0.55;;;26.50;99.90;;;;;;5081434;28;20251;-71
2021/06/15 11:07:34;;;;;;;0.00;0.00;;;26.40;99.90;;;;;;5082229;28;20663;-76
2021/06/15 11:10:01;;;;;;;0.00;0.00;;;26.40;99.90;;;;;;5082208;28;20251;-74
2021/06/15 11:12:28;;;;;;;5.72;0.55;;;26.70;99.90;;;;;;5084304;28;20240;-73
2021/06/15 11:15:22;;;;;;;0.00;0.00;;;27.00;99.90;;;;;;5086020;28;20687;-67
2021/06/15 11:17:52;;;;;;;1.85;0.35;;;27.20;99.90;;;;;;5083221;28;20198;-69
2021/06/15 11:20:31;;;;;;;0.25;0.25;;;27.00;99.90;;;;;;5083746;28;20651;-68
2021/06/15 11:23:15;;;;;;;0.10;0.10;;;26.90;99.90;;;;;;5084390;28;20243;-71
2021/06/15 11:25:51;;;;;;;0.00;0.00;;;27.20;99.90;;;;;;5086688;28;20291;-66
2021/06/15 11:28:58;;;;;;;0.00;0.00;;;27.30;99.90;;;;;;5081114;28;20647;-73
2021/06/15 11:31:37;;;;;;;0.77;0.43;;;27.80;99.90;;;;;;5080139;28;20209;-72
2021/06/15 11:34:26;;;;;;;0.20;0.20;;;28.10;99.90;;;;;;5083287;28;20202;-69
2021/06/15 11:36:57;;;;;;;0.13;0.13;;;28.50;99.90;;;;;;5085030;28;20206;-72
2021/06/15 11:39:38;;;;;;;0.00;0.00;;;28.40;99.90;;;;;;5085228;28;20191;-68
2021/06/15 11:42:18;;;;;;;0.10;0.10;;;28.60;99.90;;;;;;5083547;28;20727;-72
2021/06/15 11:45:09;;;;;;;0.10;0.10;;;28.60;99.90;;;;;;5082019;28;20857;-67
2021/06/15 11:47:47;;;;;;;0.00;0.00;;;28.50;99.90;;;;;;5081658;28;20194;-68
2021/06/15 11:50:26;;;;;;;0.00;0.00;;;28.50;99.90;;;;;;5087631;28;20200;-67
2021/06/15 11:53:01;;;;;;;1.75;0.20;;;28.50;99.90;;;;;;5084388;28;20266;-68
2021/06/15 11:55:31;;;;;;;0.00;0.00;;;28.30;99.90;;;;;;5083344;28;20236;-71
2021/06/15 11:58:00;;;;;;;0.00;0.00;;;28.00;99.90;;;;;;5087254;28;20640;-69
2021/06/15 12:00:29;;;;;;;0.00;0.00;;;27.70;99.90;;;;;;5082975;28;20190;-70
2021/06/15 12:03:07;;;;;;;0.25;0.25;;;27.60;99.90;;;;;;5087137;28;20190;-74
2021/06/15 12:05:34;;;;;;;0.00;0.00;;;27.20;99.90;;;;;;5083752;28;20759;-73
2021/06/15 12:08:01;;;;;;;0.00;0.00;;;26.90;99.90;;;;;;5079832;28;20262;-69
2021/06/15 12:10:28;;;;;;;0.55;0.50;;;26.90;99.90;;;;;;5082886;28;20938;-79
2021/06/15 12:13:07;;;;;;;0.70;0.70;;;27.10;99.90;;;;;;5082659;28;20674;-67
2021/06/15 12:15:46;;;;;;;0.00;0.00;;;26.90;99.90;;;;;;5080978;28;20187;-69
2021/06/15 12:18:28;;;;;;;0.00;0.00;;;27.00;99.90;;;;;;5084988;28;20202;-69
2021/06/15 12:20:57;;;;;;;0.00;0.00;;;27.20;99.90;;;;;;5082723;28;20198;-70
2021/06/15 12:23:26;;;;;;;0.35;0.35;;;27.40;99.90;;;;;;5085100;28;20225;-66
2021/06/15 12:25:54;;;;;;;0.00;0.00;;;27.10;99.90;;;;;;5081869;28;20226;-75
2021/06/15 12:28:23;;;;;;;0.00;0.00;;;27.20;99.90;;;;;;5084211;28;20202;-67
2021/06/15 12:31:04;;;;;;;0.10;0.10;;;27.40;99.90;;;;;;5086848;28;20233;-72
2021/06/15 12:33:32;;;;;;;0.00;0.00;;;27.90;99.90;;;;;;5082484;28;20221;-74
2021/06/15 12:36:01;;;;;;;0.00;0.00;;;28.10;99.90;;;;;;5085938;28;20251;-73
2021/06/15 12:38:28;;;;;;;0.00;0.00;;;28.30;99.90;;;;;;5081318;28;20327;-69
2021/06/15 12:40:56;;;;;;;0.00;0.00;;;28.30;99.90;;;;;;5086725;28;20239;-69
2021/06/15 12:43:27;;;;;;;0.00;0.00;;;28.70;99.90;;;;;;5083228;28;20237;-68
2021/06/15 12:46:15;;;;;;;0.00;0.00;;;28.80;99.90;;;;;;5084090;28;20644;-67
2021/06/15 12:48:48;;;;;;;0.00;0.00;;;28.70;99.90;;;;;;5087228;28;20197;-70
2021/06/15 12:51:17;;;;;;;0.00;0.00;;;28.70;99.90;;;;;;5088254;28;20255;-69
2021/06/15 12:53:45;;;;;;;0.00;0.00;;;28.70;99.90;;;;;;5085929;28;20201;-74
2021/06/15 12:56:19;;;;;;;0.00;0.00;;;28.40;99.90;;;;;;5094026;28;20228;-68
2021/06/15 12:58:47;;;;;;;0.10;0.10;;;28.50;99.90;;;;;;5088898;28;20186;-66
2021/06/15 13:01:16;;;;;;;0.10;0.10;;;28.40;99.90;;;;;;5090553;28;20202;-71
2021/06/15 13:03:48;;;;;;;0.00;0.00;;;28.60;99.90;;;;;;5087971;28;20267;-71
2021/06/15 13:06:17;;;;;;;0.00;0.00;;;28.90;99.90;;;;;;5086423;28;20210;-67
2021/06/15 13:08:44;;;;;;;0.00;0.00;;;28.90;99.90;;;;;;5085951;28;20266;-71